createdAt,value
2019-03-24T00:01:15.101Z,99067.62
2019-03-24T00:02:17.902Z,99069.12
2019-03-24T00:03:21.254Z,99069.12
2019-03-24T00:04:24.062Z,99064.28
2019-03-24T00:05:26.937Z,99067.76
2019-03-24T00:06:29.866Z,99063.73
2019-03-24T00:07:35.567Z,99063.73
2019-03-24T00:08:40.096Z,99054.81
2019-03-24T00:09:43.364Z,99067.45
2019-03-24T00:10:46.373Z,99062.04
2019-03-24T00:11:49.227Z,99062.04
2019-03-24T00:12:52.099Z,99067.12
2019-03-24T00:13:55.287Z,99054.80
2019-03-24T00:14:58.498Z,99054.80
2019-03-24T00:16:01.426Z,99049.95
2019-03-24T00:17:04.246Z,99049.95
2019-03-24T00:18:07.151Z,99062.27
2019-03-24T00:19:09.992Z,99061.68
2019-03-24T00:20:13.159Z,99055.26
2019-03-24T00:21:16.134Z,99058.27
2019-03-24T00:22:23.044Z,99059.05
2019-03-24T00:23:26.157Z,99062.01
2019-03-24T00:24:30.162Z,99063.67
2019-03-24T00:25:32.991Z,99063.67
2019-03-24T00:26:36.569Z,99060.32
2019-03-24T00:27:39.359Z,99062.71
2019-03-24T00:28:42.214Z,99062.71
2019-03-24T00:29:45.111Z,99061.81
2019-03-24T00:30:47.946Z,99046.77
2019-03-24T00:31:50.789Z,99046.77
2019-03-24T00:32:54.034Z,99040.69
2019-03-24T00:33:56.878Z,99053.68
2019-03-24T00:34:59.824Z,99051.83
2019-03-24T00:36:02.632Z,99051.83
2019-03-24T00:37:05.525Z,99052.62
2019-03-24T00:38:08.667Z,99048.28
2019-03-24T00:39:12.003Z,99050.75
2019-03-24T00:40:14.946Z,99050.75
2019-03-24T00:41:17.768Z,99044.02
2019-03-24T00:42:20.595Z,99043.72
2019-03-24T00:43:23.801Z,99043.72
2019-03-24T00:44:26.636Z,99048.19
2019-03-24T00:45:36.747Z,99044.16
2019-03-24T00:46:34.320Z,99043.10
2019-03-24T00:47:37.135Z,99037.19
2019-03-24T00:48:39.970Z,99043.17
2019-03-24T00:49:42.778Z,99049.70
2019-03-24T00:50:45.684Z,99046.71
2019-03-24T00:51:50.069Z,99050.73
2019-03-24T00:52:52.886Z,99044.75
2019-03-24T00:53:56.164Z,99042.56
2019-03-24T00:54:58.979Z,99039.09
2019-03-24T00:56:01.849Z,99043.44
2019-03-24T00:57:05.306Z,99043.44
2019-03-24T00:58:08.461Z,99035.10
2019-03-24T00:59:11.280Z,99043.78
2019-03-24T01:00:14.100Z,99043.78
2019-03-24T01:01:36.925Z,99037.19
2019-03-24T01:02:46.211Z,99036.59
2019-03-24T01:03:46.364Z,99035.47
2019-03-24T01:04:50.990Z,99033.36
2019-03-24T01:05:53.807Z,99031.23
2019-03-24T01:06:56.674Z,99031.23
2019-03-24T01:07:59.734Z,99029.89
2019-03-24T01:09:03.124Z,99030.36
2019-03-24T01:10:12.023Z,99036.09
2019-03-24T01:11:10.558Z,99036.09
2019-03-24T01:12:13.363Z,99032.08
2019-03-24T01:13:16.729Z,99034.23
2019-03-24T01:14:20.052Z,99034.23
2019-03-24T01:15:23.357Z,99039.69
2019-03-24T01:16:28.164Z,99035.89
2019-03-24T01:17:30.994Z,99035.89
2019-03-24T01:18:33.832Z,99036.27
2019-03-24T01:19:36.664Z,99040.02
2019-03-24T01:20:39.523Z,99035.52
2019-03-24T01:21:42.391Z,99036.08
2019-03-24T01:22:45.550Z,99036.25
2019-03-24T01:23:48.398Z,99035.94
2019-03-24T01:24:51.190Z,99038.83
2019-03-24T01:25:54.076Z,99038.28
2019-03-24T01:26:56.902Z,99038.80
2019-03-24T01:28:00.101Z,99038.80
2019-03-24T01:29:04.231Z,99038.66
2019-03-24T01:30:07.222Z,99030.79
2019-03-24T01:31:10.207Z,99043.14
2019-03-24T01:32:14.420Z,99043.14
2019-03-24T01:33:18.011Z,99041.06
2019-03-24T01:34:20.848Z,99041.89
2019-03-24T01:35:23.970Z,99036.15
2019-03-24T01:36:26.866Z,99043.06
2019-03-24T01:37:29.663Z,99043.06
2019-03-24T01:38:32.544Z,99042.94
2019-03-24T01:39:35.358Z,99040.27
2019-03-24T01:40:38.580Z,99034.81
2019-03-24T01:41:41.696Z,99034.81
2019-03-24T01:42:44.503Z,99035.13
2019-03-24T01:43:47.404Z,99043.84
2019-03-24T01:44:52.390Z,99039.61
2019-03-24T01:45:58.856Z,99038.81
2019-03-24T01:46:59.694Z,99038.65
2019-03-24T01:48:02.800Z,99027.89
2019-03-24T01:49:05.716Z,99039.45
2019-03-24T01:50:11.343Z,99032.52
2019-03-24T01:51:14.231Z,99027.98
2019-03-24T01:52:17.738Z,99027.98
2019-03-24T01:53:20.569Z,99034.78
2019-03-24T01:54:23.688Z,99026.46
2019-03-24T01:55:29.079Z,99026.46
2019-03-24T01:56:31.903Z,99024.39
2019-03-24T01:57:34.742Z,99024.39
2019-03-24T01:58:37.927Z,99029.22
2019-03-24T01:59:40.748Z,99029.80
2019-03-24T02:00:43.903Z,99026.01
2019-03-24T02:01:47.108Z,99028.47
2019-03-24T02:02:49.935Z,99022.00
2019-03-24T02:03:52.801Z,99027.92
2019-03-24T02:04:55.635Z,99027.92
2019-03-24T02:05:58.482Z,99019.55
2019-03-24T02:07:01.662Z,99015.49
2019-03-24T02:08:04.838Z,99027.39
2019-03-24T02:09:08.334Z,99020.66
2019-03-24T02:10:11.169Z,99020.66
2019-03-24T02:11:14.063Z,99030.05
2019-03-24T02:12:16.885Z,99027.91
2019-03-24T02:13:20.009Z,99011.70
2019-03-24T02:14:22.836Z,99011.70
2019-03-24T02:15:25.632Z,99022.77
2019-03-24T02:16:28.582Z,99021.14
2019-03-24T02:17:32.288Z,99021.14
2019-03-24T02:18:35.549Z,99020.07
2019-03-24T02:19:38.664Z,99015.73
2019-03-24T02:20:41.497Z,99017.61
2019-03-24T02:21:44.306Z,99017.61
2019-03-24T02:22:47.482Z,99015.75
2019-03-24T02:23:50.357Z,99008.47
2019-03-24T02:24:53.166Z,99011.47
2019-03-24T02:25:56.640Z,98997.67
2019-03-24T02:26:59.493Z,99003.34
2019-03-24T02:28:02.300Z,98997.16
2019-03-24T02:29:05.188Z,98996.89
2019-03-24T02:30:08.089Z,98998.78
2019-03-24T02:31:10.940Z,99000.38
2019-03-24T02:32:14.030Z,99004.20
2019-03-24T02:33:16.831Z,99004.20
2019-03-24T02:34:20.080Z,99002.02
2019-03-24T02:35:22.931Z,99003.64
2019-03-24T02:36:25.733Z,98988.80
2019-03-24T02:37:30.063Z,98992.56
2019-03-24T02:38:33.500Z,98992.56
2019-03-24T02:39:36.322Z,98995.03
2019-03-24T02:40:39.337Z,98995.56
2019-03-24T02:41:42.178Z,98997.19
2019-03-24T02:42:45.041Z,98990.44
2019-03-24T02:43:47.836Z,98996.11
2019-03-24T02:44:51.232Z,98991.52
2019-03-24T02:45:57.375Z,98991.52
2019-03-24T02:47:00.170Z,98992.06
2019-03-24T02:48:03.721Z,98991.80
2019-03-24T02:49:06.582Z,98991.80
2019-03-24T02:50:09.784Z,98991.27
2019-03-24T02:51:13.239Z,98993.39
2019-03-24T02:52:16.441Z,98992.84
2019-03-24T02:53:19.270Z,98993.40
2019-03-24T02:54:22.158Z,98992.33
2019-03-24T02:55:27.986Z,98988.29
2019-03-24T02:56:31.086Z,98984.77
2019-03-24T02:57:37.392Z,98985.31
2019-03-24T02:58:40.623Z,98989.38
2019-03-24T02:59:43.506Z,98986.39
2019-03-24T03:00:46.314Z,98986.39
2019-03-24T03:01:49.172Z,98982.06
2019-03-24T03:02:54.848Z,98973.73
2019-03-24T03:03:57.946Z,98985.59
2019-03-24T03:05:00.840Z,98985.59
2019-03-24T03:06:05.972Z,98985.59
2019-03-24T03:07:09.648Z,98978.02
2019-03-24T03:08:12.493Z,98978.02
2019-03-24T03:09:15.300Z,98978.30
2019-03-24T03:10:21.161Z,98977.22
2019-03-24T03:11:28.838Z,98979.84
2019-03-24T03:12:31.648Z,98977.14
2019-03-24T03:13:34.495Z,98978.84
2019-03-24T03:14:37.315Z,98978.84
2019-03-24T03:15:40.248Z,98972.89
2019-03-24T03:16:43.440Z,98972.89
2019-03-24T03:17:46.255Z,98969.92
2019-03-24T03:18:51.236Z,98971.55
2019-03-24T03:19:54.060Z,98969.41
2019-03-24T03:20:56.924Z,98973.45
2019-03-24T03:21:59.945Z,98970.48
2019-03-24T03:23:07.190Z,98975.59
2019-03-24T03:24:11.414Z,98970.47
2019-03-24T03:25:14.262Z,98970.47
2019-03-24T03:26:19.656Z,98973.45
2019-03-24T03:27:22.467Z,98970.75
2019-03-24T03:28:25.565Z,98968.58
2019-03-24T03:29:29.798Z,98975.59
2019-03-24T03:30:35.096Z,98975.59
2019-03-24T03:31:38.085Z,98976.09
2019-03-24T03:32:41.296Z,98979.59
2019-03-24T03:33:46.361Z,98972.31
2019-03-24T03:34:51.075Z,98969.88
2019-03-24T03:35:53.891Z,98980.39
2019-03-24T03:36:57.121Z,98980.39
2019-03-24T03:38:00.334Z,98977.71
2019-03-24T03:39:06.284Z,98973.67
2019-03-24T03:40:09.454Z,98976.62
2019-03-24T03:41:12.255Z,98976.62
2019-03-24T03:42:15.149Z,98971.21
2019-03-24T03:43:20.920Z,98979.83
2019-03-24T03:44:23.714Z,98979.83
2019-03-24T03:45:26.841Z,98977.41
2019-03-24T03:46:29.629Z,98970.95
2019-03-24T03:47:35.634Z,98970.95
2019-03-24T03:48:38.576Z,98953.44
2019-03-24T03:49:41.524Z,98953.44
2019-03-24T03:50:44.365Z,98968.83
2019-03-24T03:51:47.485Z,98959.13
2019-03-24T03:52:50.342Z,98954.27
2019-03-24T03:53:53.177Z,98954.27
2019-03-24T03:54:58.283Z,98948.33
2019-03-24T03:56:01.295Z,98953.73
2019-03-24T03:57:06.361Z,98951.03
2019-03-24T03:58:11.524Z,98945.64
2019-03-24T03:59:14.359Z,98943.21
2019-03-24T04:00:17.413Z,98945.91
2019-03-24T04:01:20.324Z,98946.19
2019-03-24T04:02:23.165Z,98946.19
2019-03-24T04:03:25.983Z,98943.22
2019-03-24T04:04:30.312Z,98945.36
2019-03-24T04:05:33.538Z,98945.36
2019-03-24T04:06:36.463Z,98942.14
2019-03-24T04:07:41.110Z,98944.56
2019-03-24T04:08:44.324Z,98944.56
2019-03-24T04:09:47.201Z,98944.56
2019-03-24T04:10:50.745Z,98944.56
2019-03-24T04:11:54.091Z,98941.34
2019-03-24T04:13:00.691Z,98944.84
2019-03-24T04:14:05.101Z,98944.84
2019-03-24T04:15:11.354Z,98939.17
2019-03-24T04:16:14.236Z,98938.38
2019-03-24T04:17:18.647Z,98935.39
2019-03-24T04:18:23.459Z,98937.81
2019-03-24T04:19:26.317Z,98934.84
2019-03-24T04:20:29.535Z,98934.84
2019-03-24T04:21:33.469Z,98935.67
2019-03-24T04:22:36.576Z,98935.67
2019-03-24T04:23:40.583Z,98936.22
2019-03-24T04:24:43.406Z,98932.41
2019-03-24T04:25:46.245Z,98925.42
2019-03-24T04:26:49.743Z,98927.30
2019-03-24T04:27:52.580Z,98928.65
2019-03-24T04:28:55.631Z,98928.65
2019-03-24T04:30:02.414Z,98928.38
2019-03-24T04:31:05.517Z,98928.38
2019-03-24T04:32:08.795Z,98927.83
2019-03-24T04:33:11.781Z,98916.51
2019-03-24T04:34:15.643Z,98930.80
2019-03-24T04:35:22.009Z,98927.57
2019-03-24T04:36:25.155Z,98922.72
2019-03-24T04:37:27.981Z,98927.02
2019-03-24T04:38:30.789Z,98913.80
2019-03-24T04:39:34.312Z,98913.80
2019-03-24T04:40:37.571Z,98926.20
2019-03-24T04:41:41.170Z,98919.17
2019-03-24T04:42:44.294Z,98919.17
2019-03-24T04:43:47.106Z,98924.88
2019-03-24T04:44:49.993Z,98928.38
2019-03-24T04:45:53.238Z,98926.50
2019-03-24T04:46:56.055Z,98926.22
2019-03-24T04:47:58.902Z,98924.86
2019-03-24T04:49:02.027Z,98921.88
2019-03-24T04:50:04.917Z,98926.20
2019-03-24T04:51:07.746Z,98921.35
2019-03-24T04:52:10.574Z,98917.59
2019-03-24T04:53:13.475Z,98920.55
2019-03-24T04:54:16.692Z,98911.93
2019-03-24T04:55:20.314Z,98917.33
2019-03-24T04:56:23.133Z,98923.80
2019-03-24T04:57:25.961Z,98921.64
2019-03-24T04:58:28.919Z,98920.28
2019-03-24T04:59:31.726Z,98919.44
2019-03-24T05:00:34.576Z,98919.19
2019-03-24T05:01:38.151Z,98917.84
2019-03-24T05:02:41.079Z,98913.52
2019-03-24T05:03:43.914Z,98916.23
2019-03-24T05:04:46.719Z,98919.72
2019-03-24T05:05:49.576Z,98919.72
2019-03-24T05:06:52.801Z,98918.66
2019-03-24T05:07:56.428Z,98910.55
2019-03-24T05:08:59.243Z,98915.42
2019-03-24T05:10:02.083Z,98915.69
2019-03-24T05:11:05.310Z,98921.09
2019-03-24T05:12:08.123Z,98921.09
2019-03-24T05:13:10.970Z,98921.09
2019-03-24T05:14:16.763Z,98921.09
2019-03-24T05:15:19.623Z,98917.56
2019-03-24T05:16:23.025Z,98914.06
2019-03-24T05:17:27.221Z,98909.49
2019-03-24T05:18:31.809Z,98909.49
2019-03-24T05:19:34.619Z,98917.84
2019-03-24T05:20:37.783Z,98910.56
2019-03-24T05:21:40.715Z,98916.78
2019-03-24T05:22:43.613Z,98914.33
2019-03-24T05:23:46.429Z,98918.66
2019-03-24T05:24:49.245Z,98918.66
2019-03-24T05:25:52.058Z,98915.42
2019-03-24T05:26:55.257Z,98908.69
2019-03-24T05:27:58.443Z,98912.45
2019-03-24T05:29:01.280Z,98912.45
2019-03-24T05:30:04.553Z,98926.23
2019-03-24T05:31:10.231Z,98927.58
2019-03-24T05:32:13.107Z,98920.55
2019-03-24T05:33:16.205Z,98920.27
2019-03-24T05:34:19.019Z,98921.34
2019-03-24T05:35:21.861Z,98917.58
2019-03-24T05:36:25.134Z,98917.58
2019-03-24T05:37:27.983Z,98910.31
2019-03-24T05:38:30.864Z,98912.17
2019-03-24T05:39:34.007Z,98912.45
2019-03-24T05:40:36.875Z,98917.33
2019-03-24T05:41:39.778Z,98910.83
2019-03-24T05:42:42.586Z,98915.16
2019-03-24T05:43:45.486Z,98916.51
2019-03-24T05:44:48.316Z,98904.64
2019-03-24T05:45:53.338Z,98904.64
2019-03-24T05:46:56.162Z,98913.53
2019-03-24T05:47:59.041Z,98918.13
2019-03-24T05:49:01.867Z,98918.39
2019-03-24T05:50:05.493Z,98914.62
2019-03-24T05:51:08.375Z,98914.62
2019-03-24T05:52:11.563Z,98919.17
2019-03-24T05:53:14.458Z,98915.94
2019-03-24T05:54:17.378Z,98914.30
2019-03-24T05:55:20.194Z,98916.20
2019-03-24T05:56:22.999Z,98911.33
2019-03-24T05:57:25.797Z,98912.95
2019-03-24T05:58:29.004Z,98908.63
2019-03-24T05:59:31.830Z,98907.86
2019-03-24T06:00:34.712Z,98910.02
2019-03-24T06:01:41.633Z,98904.89
2019-03-24T06:02:44.461Z,98905.98
2019-03-24T06:03:47.374Z,98906.25
2019-03-24T06:04:50.563Z,98904.91
2019-03-24T06:05:53.403Z,98894.64
2019-03-24T06:06:56.239Z,98896.81
2019-03-24T06:07:59.431Z,98900.86
2019-03-24T06:09:02.277Z,98904.64
2019-03-24T06:10:08.989Z,98907.88
2019-03-24T06:11:11.834Z,98901.13
2019-03-24T06:12:15.912Z,98901.13
2019-03-24T06:13:18.775Z,98905.95
2019-03-24T06:14:21.985Z,98905.95
2019-03-24T06:15:24.879Z,98910.81
2019-03-24T06:16:27.743Z,98911.91
2019-03-24T06:17:31.409Z,98909.20
2019-03-24T06:18:34.291Z,98909.47
2019-03-24T06:19:37.141Z,98909.47
2019-03-24T06:20:40.032Z,98912.99
2019-03-24T06:21:43.211Z,98908.66
2019-03-24T06:22:46.110Z,98908.66
2019-03-24T06:23:49.248Z,98905.70
2019-03-24T06:24:52.450Z,98895.20
2019-03-24T06:25:55.394Z,98895.20
2019-03-24T06:26:58.767Z,98900.05
2019-03-24T06:28:02.104Z,98895.98
2019-03-24T06:29:04.948Z,98895.98
2019-03-24T06:43:42.591Z,98904.89
2019-03-24T06:44:45.521Z,98902.45
2019-03-24T06:45:48.552Z,98902.45
2019-03-24T06:46:51.768Z,98911.64
2019-03-24T06:47:58.156Z,98911.64
2019-03-24T06:48:59.838Z,98914.33
2019-03-24T06:50:03.077Z,98915.66
2019-03-24T06:51:05.892Z,98903.22
2019-03-24T06:52:08.804Z,98915.89
2019-03-24T06:53:11.643Z,98910.44
2019-03-24T06:54:14.472Z,98906.38
2019-03-24T06:55:17.586Z,98920.42
2019-03-24T06:56:20.443Z,98920.42
2019-03-24T06:57:23.622Z,98911.78
2019-03-24T06:58:27.706Z,98911.78
2019-03-24T06:59:30.986Z,98918.05
2019-03-24T07:00:33.826Z,98918.05
2019-03-24T07:01:40.903Z,98909.10
2019-03-24T07:02:45.307Z,98909.10
2019-03-24T07:03:51.428Z,98915.61
2019-03-24T07:04:58.552Z,98917.24
2019-03-24T07:06:02.501Z,98908.39
2019-03-24T07:07:13.703Z,98912.69
2019-03-24T07:08:17.262Z,98911.03
2019-03-24T07:09:22.682Z,98911.03
2019-03-24T07:10:28.604Z,98917.80
2019-03-24T07:11:31.490Z,98915.62
2019-03-24T07:12:34.343Z,98916.45
2019-03-24T07:13:37.256Z,98922.66
2019-03-24T07:14:40.485Z,98913.45
2019-03-24T07:15:43.354Z,98915.84
2019-03-24T07:16:46.169Z,98915.84
2019-03-24T07:17:50.110Z,98914.48
2019-03-24T07:18:52.956Z,98915.83
2019-03-24T07:19:56.215Z,98917.45
2019-03-24T07:20:59.456Z,98918.79
2019-03-24T07:22:04.099Z,98919.03
2019-03-24T07:23:06.939Z,98921.70
2019-03-24T07:24:09.747Z,98920.32
2019-03-24T07:25:12.582Z,98915.38
2019-03-24T07:26:18.748Z,98912.96
2019-03-24T07:27:21.594Z,98912.96
2019-03-24T07:28:25.027Z,98918.08
2019-03-24T07:29:27.948Z,98920.27
2019-03-24T07:30:31.163Z,98920.27
2019-03-24T07:31:36.305Z,98911.84
2019-03-24T07:32:39.453Z,98912.68
2019-03-24T07:33:45.058Z,98904.55
2019-03-24T07:34:47.938Z,98910.48
2019-03-24T07:35:50.774Z,98901.33
2019-03-24T07:36:54.872Z,98906.19
2019-03-24T07:37:57.704Z,98905.66
2019-03-24T07:39:00.946Z,98909.97
2019-03-24T07:40:03.776Z,98906.70
2019-03-24T07:41:06.612Z,98907.55
2019-03-24T07:42:09.498Z,98912.73
2019-03-24T07:43:12.455Z,98894.34
2019-03-24T07:44:18.146Z,98901.61
2019-03-24T07:45:20.993Z,98904.83
2019-03-24T07:46:23.855Z,98895.63
2019-03-24T07:47:26.775Z,98895.63
2019-03-24T07:48:29.588Z,98901.20
2019-03-24T07:49:37.018Z,98902.77
2019-03-24T07:50:42.547Z,98891.44
2019-03-24T07:51:47.248Z,98902.56
2019-03-24T07:52:50.142Z,98901.70
2019-03-24T07:53:53.100Z,98901.70
2019-03-24T07:54:56.017Z,98891.92
2019-03-24T07:56:01.047Z,98896.26
2019-03-24T07:57:04.253Z,98888.50
2019-03-24T07:58:07.075Z,98888.50
2019-03-24T07:59:10.319Z,98891.73
2019-03-24T08:00:13.169Z,98891.73
2019-03-24T08:01:16.027Z,98894.13
2019-03-24T08:02:18.908Z,98885.76
2019-03-24T08:03:21.734Z,98891.41
2019-03-24T08:04:24.597Z,98890.91
2019-03-24T08:05:30.586Z,98890.91
2019-03-24T08:06:33.428Z,98889.09
2019-03-24T08:07:39.027Z,98889.88
2019-03-24T08:08:44.398Z,98889.88
2019-03-24T08:09:47.473Z,98889.63
2019-03-24T08:10:50.297Z,98891.98
2019-03-24T08:11:53.199Z,98890.59
2019-03-24T08:12:56.134Z,98886.42
2019-03-24T08:13:59.121Z,98888.81
2019-03-24T08:15:02.311Z,98885.56
2019-03-24T08:16:05.596Z,98887.19
2019-03-24T08:17:10.107Z,98872.30
2019-03-24T08:18:13.005Z,98872.30
2019-03-24T08:19:15.868Z,98882.48
2019-03-24T08:20:19.371Z,98881.64
2019-03-24T08:21:22.474Z,98876.03
2019-03-24T08:22:25.324Z,98872.28
2019-03-24T08:23:28.226Z,98870.72
2019-03-24T08:24:31.099Z,98874.76
2019-03-24T08:25:36.361Z,98872.02
2019-03-24T08:26:39.178Z,98861.43
2019-03-24T08:27:45.255Z,98857.86
2019-03-24T08:28:48.198Z,98860.70
2019-03-24T08:29:53.348Z,98859.72
2019-03-24T08:30:56.189Z,98858.09
2019-03-24T08:31:59.387Z,98858.09
2019-03-24T08:33:03.671Z,98860.19
2019-03-24T08:34:09.839Z,98858.25
2019-03-24T08:35:12.712Z,98856.37
2019-03-24T08:36:15.768Z,98845.36
2019-03-24T08:37:19.220Z,98849.59
2019-03-24T08:38:22.752Z,98853.37
2019-03-24T08:39:25.668Z,98841.42
2019-03-24T08:40:28.847Z,98841.42
2019-03-24T08:41:31.698Z,98843.92
2019-03-24T08:42:34.546Z,98845.78
2019-03-24T08:43:37.361Z,98851.20
2019-03-24T08:44:40.720Z,98845.59
2019-03-24T08:45:43.557Z,98844.64
2019-03-24T08:46:47.187Z,98844.64
2019-03-24T08:47:50.032Z,98853.70
2019-03-24T08:48:56.286Z,98853.70
2019-03-24T08:50:04.013Z,98842.56
2019-03-24T08:51:15.135Z,98850.00
2019-03-24T08:52:18.267Z,98849.47
2019-03-24T08:53:23.038Z,98840.61
2019-03-24T08:54:26.349Z,98843.69
2019-03-24T08:55:29.187Z,98846.29
2019-03-24T08:56:32.048Z,98846.29
2019-03-24T08:57:37.817Z,98849.06
2019-03-24T08:58:40.659Z,98842.14
2019-03-24T08:59:43.811Z,98842.14
2019-03-24T09:00:47.350Z,98841.34
2019-03-24T09:02:00.762Z,98841.34
2019-03-24T09:03:06.098Z,98834.36
2019-03-24T09:04:13.052Z,98834.36
2019-03-24T09:05:15.970Z,98841.61
2019-03-24T09:06:19.095Z,98846.23
2019-03-24T09:07:22.710Z,98835.16
2019-03-24T09:08:25.618Z,98839.40
2019-03-24T09:09:30.864Z,98839.40
2019-03-24T09:10:34.070Z,98841.16
2019-03-24T09:11:37.337Z,98840.25
2019-03-24T09:12:40.182Z,98840.28
2019-03-24T09:13:43.058Z,98837.27
2019-03-24T09:14:45.923Z,98837.31
2019-03-24T09:15:51.348Z,98820.71
2019-03-24T09:16:54.244Z,98817.24
2019-03-24T09:17:57.376Z,98822.45
2019-03-24T09:19:00.229Z,98822.45
2019-03-24T09:20:03.120Z,98815.04
2019-03-24T09:21:07.069Z,98815.04
2019-03-24T09:22:09.887Z,98813.13
2019-03-24T09:23:15.830Z,98812.40
2019-03-24T09:24:19.020Z,98806.82
2019-03-24T09:25:22.309Z,98798.13
2019-03-24T09:26:25.284Z,98796.77
2019-03-24T09:27:28.130Z,98795.33
2019-03-24T09:28:30.963Z,98800.38
2019-03-24T09:29:33.816Z,98803.92
2019-03-24T09:30:36.981Z,98797.89
2019-03-24T09:31:39.889Z,98798.94
2019-03-24T09:32:42.742Z,98794.95
2019-03-24T09:33:45.608Z,98788.96
2019-03-24T09:34:51.903Z,98788.96
2019-03-24T09:35:58.956Z,98787.25
2019-03-24T09:37:05.076Z,98787.25
2019-03-24T09:38:13.377Z,98795.52
2019-03-24T09:39:16.216Z,98790.58
2019-03-24T09:40:19.093Z,98795.80
2019-03-24T09:41:23.891Z,98795.80
2019-03-24T09:42:30.349Z,98794.42
2019-03-24T09:43:38.828Z,98794.42
2019-03-24T09:44:45.789Z,98784.30
2019-03-24T09:45:48.647Z,98782.55
2019-03-24T09:46:53.241Z,98790.78
2019-03-24T09:47:56.057Z,98789.16
2019-03-24T09:49:05.602Z,98787.98
2019-03-24T09:50:09.458Z,98800.41
2019-03-24T09:51:21.473Z,98800.41
2019-03-24T09:52:24.379Z,98787.47
2019-03-24T09:53:29.933Z,98787.47
2019-03-24T09:54:33.067Z,98791.98
2019-03-24T09:55:36.507Z,98800.80
2019-03-24T09:56:39.411Z,98802.47
2019-03-24T09:57:42.622Z,98799.88
2019-03-24T09:58:48.348Z,98804.47
2019-03-24T09:59:51.179Z,98803.38
2019-03-24T10:00:56.296Z,98803.81
2019-03-24T10:02:05.741Z,98805.03
2019-03-24T10:03:10.122Z,98809.43
2019-03-24T10:04:13.016Z,98804.77
2019-03-24T10:05:16.144Z,98804.77
2019-03-24T10:06:22.079Z,98810.05
2019-03-24T10:07:25.384Z,98808.64
2019-03-24T10:08:31.039Z,98807.11
2019-03-24T10:09:34.247Z,98807.11
2019-03-24T10:10:40.153Z,98808.38
2019-03-24T10:11:49.095Z,98808.38
2019-03-24T10:12:52.154Z,98811.61
2019-03-24T10:13:56.534Z,98812.41
2019-03-24T10:14:59.694Z,98807.28
2019-03-24T10:16:02.593Z,98803.98
2019-03-24T10:17:07.109Z,98812.13
2019-03-24T10:18:16.318Z,98815.11
2019-03-24T10:19:19.605Z,98814.05
2019-03-24T10:20:22.437Z,98814.05
2019-03-24T10:21:31.360Z,98816.02
2019-03-24T10:22:32.642Z,98820.89
2019-03-24T10:23:35.608Z,98815.67
2019-03-24T10:24:47.287Z,98811.85
2019-03-24T10:25:59.153Z,98811.85
2019-03-24T10:27:05.362Z,98811.80
2019-03-24T10:28:10.666Z,98810.28
2019-03-24T10:29:13.617Z,98809.36
2019-03-24T10:30:17.852Z,98809.36
2019-03-24T10:31:20.670Z,98799.16
2019-03-24T10:32:25.225Z,98811.80
2019-03-24T10:33:33.985Z,98811.80
2019-03-24T10:34:38.713Z,98808.83
2019-03-24T10:35:41.986Z,98806.55
2019-03-24T10:36:45.263Z,98811.61
2019-03-24T10:37:53.372Z,98808.18
2019-03-24T10:38:59.015Z,98799.18
2019-03-24T10:40:04.247Z,98799.18
2019-03-24T10:41:07.225Z,98803.84
2019-03-24T10:42:10.125Z,98803.84
2019-03-24T10:43:15.242Z,98798.46
2019-03-24T10:44:18.231Z,98799.19
2019-03-24T10:45:22.607Z,98791.08
2019-03-24T10:46:28.178Z,98794.48
2019-03-24T10:47:30.499Z,98795.00
2019-03-24T10:48:36.765Z,98798.41
2019-03-24T10:49:39.602Z,98798.77
2019-03-24T10:50:47.206Z,98800.08
2019-03-24T10:51:50.136Z,98800.08
2019-03-24T10:52:53.317Z,98800.95
2019-03-24T10:53:56.238Z,98800.95
2019-03-24T10:55:04.851Z,98804.16
2019-03-24T10:56:09.913Z,98791.18
2019-03-24T10:57:13.569Z,98791.18
2019-03-24T10:58:21.118Z,98798.08
2019-03-24T10:59:24.247Z,98803.21
2019-03-24T11:00:30.160Z,98799.23
2019-03-24T11:01:33.489Z,98800.75
2019-03-24T11:02:42.261Z,98797.30
2019-03-24T11:03:46.150Z,98797.30
2019-03-24T11:04:51.529Z,98795.67
2019-03-24T11:05:54.675Z,98799.48
2019-03-24T11:06:57.647Z,98800.27
2019-03-24T11:08:00.485Z,98800.27
2019-03-24T11:09:07.507Z,98799.59
2019-03-24T11:10:14.847Z,98796.67
2019-03-24T11:11:18.070Z,98787.25
2019-03-24T11:12:26.583Z,98798.34
2019-03-24T11:13:29.504Z,98798.39
2019-03-24T11:14:35.479Z,98788.20
2019-03-24T11:15:38.450Z,98788.20
2019-03-24T11:16:46.381Z,98798.12
2019-03-24T11:17:49.592Z,98791.58
2019-03-24T11:18:52.936Z,98796.96
2019-03-24T11:19:55.769Z,98790.91
2019-03-24T11:20:58.790Z,98790.91
2019-03-24T11:22:01.868Z,98798.28
2019-03-24T11:23:04.865Z,98798.28
2019-03-24T11:24:07.720Z,98801.59
2019-03-24T11:25:11.129Z,98800.28
2019-03-24T11:26:14.010Z,98800.28
2019-03-24T11:27:19.625Z,98792.08
2019-03-24T11:28:22.468Z,98784.91
2019-03-24T11:29:25.477Z,98784.91
2019-03-24T11:42:44.453Z,98779.88
2019-03-24T11:43:48.193Z,98777.23
2019-03-24T11:44:51.103Z,98785.84
2019-03-24T11:45:54.428Z,98786.95
2019-03-24T11:47:04.324Z,98782.02
2019-03-24T11:48:08.578Z,98778.02
2019-03-24T11:49:14.295Z,98772.23
2019-03-24T11:50:17.565Z,98776.80
2019-03-24T11:51:20.724Z,98770.72
2019-03-24T11:52:23.781Z,98768.73
2019-03-24T11:53:29.372Z,98773.84
2019-03-24T11:54:34.766Z,98773.84
2019-03-24T11:55:44.238Z,98764.28
2019-03-24T11:56:48.391Z,98764.28
2019-03-24T11:58:05.256Z,98757.81
2019-03-24T11:59:00.615Z,98758.90
2019-03-24T12:00:05.294Z,98750.45
2019-03-24T12:01:09.047Z,98750.45
2019-03-24T12:02:12.785Z,98747.70
2019-03-24T12:03:19.041Z,98747.70
2019-03-24T12:04:26.205Z,98746.94
2019-03-24T12:05:32.163Z,98738.98
2019-03-24T12:06:41.277Z,98743.01
2019-03-24T12:07:44.681Z,98743.01
2019-03-24T12:08:49.689Z,98737.77
2019-03-24T12:09:52.669Z,98735.16
2019-03-24T12:10:55.653Z,98731.80
2019-03-24T12:11:58.707Z,98731.80
2019-03-24T12:13:02.001Z,98731.33
2019-03-24T12:14:05.485Z,98727.30
2019-03-24T12:15:10.538Z,98726.16
2019-03-24T12:16:13.843Z,98726.16
2019-03-24T12:17:18.172Z,98716.80
2019-03-24T12:18:21.157Z,98713.81
2019-03-24T12:19:27.150Z,98708.42
2019-03-24T12:20:34.745Z,98711.83
2019-03-24T12:21:40.197Z,98713.17
2019-03-24T12:22:46.221Z,98710.95
2019-03-24T12:23:49.489Z,98709.77
2019-03-24T12:25:01.069Z,98708.41
2019-03-24T12:26:04.975Z,98712.96
2019-03-24T12:27:09.859Z,98712.96
2019-03-24T12:28:15.801Z,98706.86
2019-03-24T12:29:18.620Z,98711.81
2019-03-24T12:30:24.629Z,98704.06
2019-03-24T12:31:28.741Z,98703.91
2019-03-24T12:32:34.026Z,98703.91
2019-03-24T12:33:37.313Z,98698.72
2019-03-24T12:34:46.323Z,98698.53
2019-03-24T12:35:47.594Z,98702.54
2019-03-24T12:36:51.491Z,98701.20
2019-03-24T12:37:54.362Z,98695.74
2019-03-24T12:38:57.195Z,98698.06
2019-03-24T12:40:00.371Z,98698.06
2019-03-24T12:41:03.403Z,98705.53
2019-03-24T12:42:06.351Z,98702.41
2019-03-24T12:43:19.111Z,98702.41
2019-03-24T12:44:14.807Z,98697.41
2019-03-24T12:45:19.214Z,98697.41
2019-03-24T12:46:22.129Z,98697.03
2019-03-24T12:47:28.166Z,98697.03
2019-03-24T12:48:36.420Z,98698.06
2019-03-24T12:49:40.186Z,98696.63
2019-03-24T12:50:45.661Z,98696.63
2019-03-24T12:51:49.710Z,98705.89
2019-03-24T12:52:57.966Z,98699.50
2019-03-24T12:54:00.861Z,98702.24
2019-03-24T12:55:03.795Z,98699.41
2019-03-24T12:56:09.224Z,98699.41